Time;durP1;ratioP1;P1;durP2;ratioP2;P2;SDS_P1;SDS_P2;PMS_P1;PMS_P2;Temp;Humidity;BMP_temperature;BMP_pressure;BME280_temperature;BME280_humidity;BME280_pressure;Samples;Min_cycle;Max_cycle;Signal;HPM_P1;HPM_P2
2023/08/19 00:01:35;;;;;;;;;24.00;24.00;;;;;29.36;78.26;100233.13;5009786;28;45313;-83
2023/08/19 00:04:03;;;;;;;;;22.00;22.00;;;;;29.38;78.46;100222.94;4993221;28;44882;-82
2023/08/19 00:06:33;;;;;;;;;23.33;23.33;;;;;29.42;78.28;100227.19;5010099;28;44882;-81
2023/08/19 00:09:00;;;;;;;;;18.67;18.67;;;;;29.31;78.03;100228.84;4992885;28;45465;-81
2023/08/19 00:11:25;;;;;;;;;22.67;22.67;;;;;29.30;77.89;100238.03;4993549;28;47580;-80
2023/08/19 00:13:50;;;;;;;;;24.67;22.33;;;;;29.29;77.85;100230.81;5009447;28;44725;-81
2023/08/19 00:16:16;;;;;;;;;24.67;23.00;;;;;29.26;78.01;100231.03;5009728;28;45263;-81
2023/08/19 00:18:41;;;;;;;;;23.00;23.00;;;;;29.27;77.75;100238.28;4994110;28;44855;-80
2023/08/19 00:21:06;;;;;;;;;22.00;22.00;;;;;29.27;77.96;100241.00;5011953;28;45180;-81
2023/08/19 00:23:32;;;;;;;;;25.00;24.00;;;;;29.31;77.88;100242.53;5011622;28;44835;-80
2023/08/19 00:26:00;;;;;;;;;23.67;22.67;;;;;29.29;77.31;100252.75;5011763;28;44679;-81
2023/08/19 00:28:28;;;;;;;;;20.00;20.00;;;;;29.30;76.77;100248.13;5011158;28;44854;-81
2023/08/19 00:30:53;;;;;;;;;21.67;20.67;;;;;29.31;76.60;100250.75;5010051;28;45082;-81
2023/08/19 00:33:19;;;;;;;;;21.33;21.33;;;;;29.37;75.97;100254.03;5010065;28;45405;-81
2023/08/19 00:35:44;;;;;;;;;20.67;20.00;;;;;29.34;75.75;100257.00;5010084;28;44811;-81
2023/08/19 00:38:13;;;;;;;;;25.67;25.67;;;;;29.44;75.59;100255.34;5009173;28;44868;-81
2023/08/19 00:40:38;;;;;;;;;21.67;20.33;;;;;29.36;75.53;100255.91;4992878;28;47235;-81
2023/08/19 00:43:05;;;;;;;;;20.00;18.67;;;;;29.38;75.71;100250.31;4996527;28;45091;-82
2023/08/19 00:45:31;;;;;;;;;20.00;20.00;;;;;29.42;75.56;100251.84;5013519;28;44826;-82
2023/08/19 00:47:56;;;;;;;;;18.67;18.67;;;;;29.39;75.19;100252.06;4995257;28;44787;-82
2023/08/19 00:50:24;;;;;;;;;21.00;21.00;;;;;29.43;75.31;100248.09;5013577;28;45430;-82
2023/08/19 00:52:50;;;;;;;;;22.00;22.00;;;;;29.39;75.01;100252.06;4995448;28;44684;-81
2023/08/19 00:55:18;;;;;;;;;22.33;20.67;;;;;29.48;74.87;100255.00;5013618;28;44798;-82
2023/08/19 00:57:52;;;;;;;;;21.33;19.33;;;;;29.49;74.40;100253.13;4996767;28;45589;-81
2023/08/19 01:00:17;;;;;;;;;23.00;23.00;;;;;29.39;74.35;100255.69;4995273;28;46681;-81
2023/08/19 01:02:43;;;;;;;;;21.33;21.33;;;;;29.39;74.21;100257.53;5013941;28;44758;-81
2023/08/19 01:05:11;;;;;;;;;20.00;20.00;;;;;29.46;74.19;100258.84;5012907;28;44735;-82
2023/08/19 01:07:43;;;;;;;;;20.33;20.33;;;;;29.37;73.74;100264.97;5011470;28;44852;-82
2023/08/19 01:10:30;;;;;;;;;18.33;17.67;;;;;29.42;72.94;100262.81;4993880;28;48236;-82
2023/08/19 01:13:11;;;;;;;;;23.67;21.67;;;;;29.51;72.82;100273.97;4994594;28;44918;-83
2023/08/19 01:15:47;;;;;;;;;20.67;20.67;;;;;29.50;71.89;100269.47;5012383;28;44760;-82
2023/08/19 01:18:15;;;;;;;;;17.00;17.00;;;;;29.42;71.64;100268.28;5013535;28;44776;-82
2023/08/19 01:20:42;;;;;;;;;18.67;18.00;;;;;29.38;70.77;100264.88;4994622;28;46867;-82
2023/08/19 01:23:31;;;;;;;;;19.00;18.67;;;;;29.54;70.24;100272.88;5013179;28;44858;-82
2023/08/19 01:25:57;;;;;;;;;17.33;17.33;;;;;29.37;70.07;100281.41;5011225;28;44755;-83
2023/08/19 01:28:23;;;;;;;;;16.67;16.00;;;;;29.38;69.89;100284.06;5012329;28;45414;-82
2023/08/19 01:30:48;;;;;;;;;20.67;19.67;;;;;29.35;69.79;100286.13;4995710;28;46956;-82
2023/08/19 01:33:14;;;;;;;;;13.00;12.00;;;;;29.32;69.82;100279.03;5013457;28;44656;-82
2023/08/19 01:36:19;;;;;;;;;20.00;18.00;;;;;29.50;69.49;100299.59;5014879;28;45403;-81
2023/08/19 01:39:00;;;;;;;;;16.00;15.33;;;;;29.36;69.74;100301.59;5014272;28;45182;-82
2023/08/19 01:41:30;;;;;;;;;19.00;17.00;;;;;29.32;69.32;100307.28;5013034;28;45087;-81
2023/08/19 01:44:02;;;;;;;;;21.67;20.67;;;;;29.36;69.40;100302.47;5011434;28;44853;-82
2023/08/19 01:46:30;;;;;;;;;18.00;17.00;;;;;29.32;69.13;100307.28;4995406;28;44760;-83
2023/08/19 01:48:56;;;;;;;;;19.00;19.00;;;;;29.26;69.21;100306.84;4994935;28;45288;-83
2023/08/19 01:51:21;;;;;;;;;19.33;19.33;;;;;29.27;69.43;100309.50;5011367;28;46730;-82
2023/08/19 01:53:47;;;;;;;;;20.33;18.00;;;;;29.21;69.02;100312.66;5011372;28;44810;-82
2023/08/19 01:56:12;;;;;;;;;22.00;20.00;;;;;29.22;69.41;100316.28;5012071;28;44858;-84
2023/08/19 01:58:41;;;;;;;;;17.00;17.00;;;;;29.26;69.21;100317.81;4994861;28;44924;-81
2023/08/19 02:01:11;;;;;;;;;17.00;17.00;;;;;29.28;68.74;100316.69;5011857;28;45041;-83
2023/08/19 02:03:36;;;;;;;;;19.33;17.67;;;;;29.14;69.47;100314.06;4995590;28;45421;-81
2023/08/19 02:06:12;;;;;;;;;16.00;16.00;;;;;29.26;68.34;100324.16;4994332;28;45383;-81
2023/08/19 02:08:37;;;;;;;;;19.67;18.67;;;;;29.12;68.57;100327.84;5010590;28;44786;-81
2023/08/19 02:11:03;;;;;;;;;20.33;19.33;;;;;29.09;68.45;100321.72;5012494;28;47078;-80
2023/08/19 02:13:28;;;;;;;;;16.33;15.00;;;;;29.07;68.88;100332.75;4995354;28;44784;-82
2023/08/19 02:15:54;;;;;;;;;18.00;18.00;;;;;29.09;68.64;100332.66;5011998;28;44776;-81
2023/08/19 02:18:22;;;;;;;;;18.00;17.67;;;;;29.10;68.25;100324.31;5013251;28;44840;-81
2023/08/19 02:20:47;;;;;;;;;17.00;17.00;;;;;29.01;68.62;100337.81;5012943;28;45395;-81
2023/08/19 02:23:13;;;;;;;;;12.33;11.67;;;;;29.04;68.46;100332.97;5010190;28;45428;-81
2023/08/19 02:25:38;;;;;;;;;16.67;16.67;;;;;28.93;68.68;100333.72;5010422;28;44778;-81
2023/08/19 02:28:04;;;;;;;;;16.00;16.00;;;;;28.95;68.44;100346.44;4994302;28;44956;-81
2023/08/19 02:30:31;;;;;;;;;14.67;14.67;;;;;28.97;68.87;100344.47;5010478;28;46933;-81
2023/08/19 02:33:03;;;;;;;;;18.00;18.00;;;;;28.90;68.52;100347.63;5010230;28;44948;-82
2023/08/19 02:35:28;;;;;;;;;15.33;15.33;;;;;28.88;68.71;100349.59;4993888;28;44720;-81
2023/08/19 02:37:54;;;;;;;;;15.67;15.67;;;;;28.85;68.53;100347.06;4994432;28;44771;-81
2023/08/19 02:40:19;;;;;;;;;16.00;16.00;;;;;28.86;68.40;100348.81;5011471;28;44989;-81
2023/08/19 02:42:45;;;;;;;;;16.00;16.00;;;;;28.83;68.56;100349.03;5011929;28;44874;-81
2023/08/19 02:45:10;;;;;;;;;16.67;16.67;;;;;28.86;68.77;100359.75;5027182;28;45535;-81
2023/08/19 02:47:36;;;;;;;;;17.00;17.00;;;;;28.85;68.22;100366.22;5026770;28;44857;-83
2023/08/19 02:50:01;;;;;;;;;19.67;17.67;;;;;28.84;68.38;100380.88;5010610;28;46887;-80
2023/08/19 02:52:26;;;;;;;;;17.00;17.00;;;;;28.83;68.51;100376.41;5011779;28;45192;-81
2023/08/19 02:54:52;;;;;;;;;15.00;14.00;;;;;28.82;68.51;100385.56;5012139;28;45108;-81
2023/08/19 02:57:17;;;;;;;;;17.67;17.33;;;;;28.77;68.39;100379.56;5012969;28;44863;-81
2023/08/19 02:59:42;;;;;;;;;16.67;16.67;;;;;28.73;68.28;100380.75;5012046;28;44881;-80
2023/08/19 03:02:08;;;;;;;;;15.67;15.33;;;;;28.75;68.40;100383.38;5011570;28;44824;-82
2023/08/19 03:04:33;;;;;;;;;19.00;18.00;;;;;28.69;68.51;100377.34;5011081;28;44951;-81
2023/08/19 03:07:02;;;;;;;;;21.00;20.00;;;;;28.79;68.65;100363.91;5027698;28;44791;-80
2023/08/19 03:09:27;;;;;;;;;15.67;15.33;;;;;28.67;68.20;100378.44;5026367;28;47871;-81
2023/08/19 03:11:53;;;;;;;;;16.67;16.67;;;;;28.69;68.48;100379.19;5010407;28;44773;-81
2023/08/19 03:14:19;;;;;;;;;20.33;17.33;;;;;28.64;68.23;100381.34;5012965;28;44906;-80
2023/08/19 03:16:51;;;;;;;;;15.00;15.00;;;;;28.71;68.69;100383.56;5012398;28;44907;-80
2023/08/19 03:19:29;;;;;;;;;18.33;17.67;;;;;28.68;68.14;100377.44;5013075;28;44991;-83
2023/08/19 03:21:57;;;;;;;;;18.00;18.00;;;;;28.52;67.91;100389.41;5012657;28;45330;-81
2023/08/19 03:24:23;;;;;;;;;15.00;14.67;;;;;28.51;68.19;100393.13;5027865;28;44831;-82
2023/08/19 03:26:48;;;;;;;;;16.00;16.00;;;;;28.47;68.28;100397.00;5010905;28;44959;-80
2023/08/19 03:29:14;;;;;;;;;17.67;15.67;;;;;28.46;67.85;100397.09;5027207;28;47617;-80
2023/08/19 03:31:40;;;;;;;;;15.67;15.33;;;;;28.42;67.70;100401.91;5012364;28;44805;-80
2023/08/19 03:34:05;;;;;;;;;17.00;15.33;;;;;28.34;67.81;100404.28;5010887;28;45192;-80
2023/08/19 03:36:30;;;;;;;;;13.00;13.00;;;;;28.32;67.58;100407.13;5027222;28;44770;-81
2023/08/19 03:38:56;;;;;;;;;17.00;17.00;;;;;28.32;68.54;100417.19;5010778;28;45061;-81
2023/08/19 03:41:21;;;;;;;;;14.33;14.33;;;;;28.28;68.10;100418.34;5025761;28;45055;-81
2023/08/19 03:43:47;;;;;;;;;14.00;13.33;;;;;28.22;67.90;100419.63;5011495;28;45325;-81
2023/08/19 03:46:12;;;;;;;;;13.67;13.67;;;;;28.18;67.61;100422.63;4994671;28;44960;-82
2023/08/19 03:48:38;;;;;;;;;13.50;13.50;;;;;28.16;67.56;100425.50;4993231;28;47419;-81
2023/08/19 03:51:03;;;;;;;;;17.00;16.00;;;;;28.12;67.98;100435.75;5010557;28;44640;-81
2023/08/19 03:53:28;;;;;;;;;15.33;15.33;;;;;28.07;67.36;100426.94;5011147;28;45039;-81
2023/08/19 03:55:54;;;;;;;;;14.00;14.00;;;;;28.07;66.89;100443.34;5010360;28;44825;-81
2023/08/19 03:58:19;;;;;;;;;14.33;14.33;;;;;28.06;66.39;100441.59;4992462;28;46762;-82
2023/08/19 04:00:44;;;;;;;;;14.00;12.50;;;;;28.00;66.54;100450.19;5011048;28;45312;-81
2023/08/19 04:03:10;;;;;;;;;15.33;12.67;;;;;28.00;66.47;100452.94;5011984;28;45196;-81
2023/08/19 04:05:35;;;;;;;;;11.33;11.33;;;;;27.97;66.56;100450.38;4995386;28;44852;-80
2023/08/19 04:08:01;;;;;;;;;14.67;12.67;;;;;27.97;66.51;100453.13;4995152;28;47170;-81
2023/08/19 04:10:26;;;;;;;;;13.00;12.00;;;;;27.96;65.57;100445.91;5012577;28;45037;-81
2023/08/19 04:12:51;;;;;;;;;13.33;10.00;;;;;27.87;64.84;100462.88;5013428;28;45340;-82
2023/08/19 04:15:17;;;;;;;;;4.33;4.33;;;;;27.79;64.02;100462.44;5012871;28;44845;-81
2023/08/19 04:17:43;;;;;;;;;8.67;8.33;;;;;27.71;63.78;100472.00;4998030;28;47191;-81
2023/08/19 04:20:09;;;;;;;;;10.00;8.67;;;;;27.69;64.25;100481.25;5014392;28;44942;-81
2023/08/19 04:22:36;;;;;;;;;9.00;9.00;;;;;27.65;63.66;100485.16;5015342;28;44782;-81
2023/08/19 04:25:02;;;;;;;;;9.33;9.00;;;;;27.57;63.61;100477.44;5014336;28;44826;-81
2023/08/19 04:27:28;;;;;;;;;10.00;9.33;;;;;27.64;64.19;100503.41;5012874;28;45812;-81
2023/08/19 04:29:54;;;;;;;;;9.25;9.25;;;;;27.52;63.73;100495.97;5013452;28;44797;-81
2023/08/19 04:32:19;;;;;;;;;8.67;8.67;;;;;27.50;63.89;100500.63;5013645;28;45195;-81
2023/08/19 04:34:44;;;;;;;;;9.00;8.00;;;;;27.42;63.81;100490.16;5014191;28;45292;-80
2023/08/19 04:37:10;;;;;;;;;10.00;9.67;;;;;27.47;63.98;100498.97;5013704;28;45232;-81
2023/08/19 04:39:37;;;;;;;;;10.33;10.33;;;;;27.48;63.92;100516.22;5012959;28;44835;-82
2023/08/19 04:42:02;;;;;;;;;9.67;9.67;;;;;27.41;64.62;100498.44;4996152;28;44771;-82
2023/08/19 04:44:28;;;;;;;;;11.00;10.33;;;;;27.48;64.23;100518.97;5012139;28;45220;-82
2023/08/19 04:46:53;;;;;;;;;11.00;11.00;;;;;27.50;64.49;100514.28;4994923;28;46788;-81
2023/08/19 04:49:20;;;;;;;;;11.33;11.33;;;;;27.48;64.92;100519.84;5012227;28;44805;-81
2023/08/19 04:51:46;;;;;;;;;11.00;10.00;;;;;27.45;64.97;100524.59;5013381;28;44787;-82
2023/08/19 04:54:11;;;;;;;;;10.00;9.00;;;;;27.42;65.15;100538.44;5012016;28;44740;-82
2023/08/19 04:56:37;;;;;;;;;9.00;9.00;;;;;27.33;65.92;100532.56;5013288;28;44902;-82
2023/08/19 04:59:02;;;;;;;;;10.00;10.00;;;;;27.33;65.53;100532.56;5011564;28;44776;-83
2023/08/19 05:01:29;;;;;;;;;4.00;4.00;;;;;27.36;65.68;100541.56;5010680;28;44719;-82
2023/08/19 05:03:55;;;;;;;;;11.00;10.00;;;;;27.31;65.89;100545.44;5011995;28;44940;-82
2023/08/19 05:06:21;;;;;;;;;10.00;9.00;;;;;27.41;65.84;100556.69;5010160;28;44963;-81
2023/08/19 05:08:47;;;;;;;;;8.33;8.33;;;;;27.39;66.42;100549.53;5010847;28;44893;-82
2023/08/19 05:11:13;;;;;;;;;10.33;7.67;;;;;27.43;66.10;100553.84;5011491;28;44915;-82
2023/08/19 05:13:38;;;;;;;;;7.67;7.67;;;;;27.42;65.67;100552.13;4995210;28;44839;-80
2023/08/19 05:16:04;;;;;;;;;7.33;7.33;;;;;27.42;65.39;100555.72;5012117;28;45201;-81
2023/08/19 05:21:51;;;;;;;;;6.67;6.67;;;;;27.32;65.52;100566.28;5009486;28;45366;-81
2023/08/19 05:24:18;;;;;;;;;9.00;8.00;;;;;27.26;65.92;100554.84;5007918;28;45493;-82
2023/08/19 05:26:44;;;;;;;;;6.33;6.33;;;;;27.25;65.72;100566.78;5004199;28;47250;-82
2023/08/19 05:29:11;;;;;;;;;5.00;5.00;;;;;27.23;65.66;100572.31;5005043;28;44747;-82
2023/08/19 05:31:37;;;;;;;;;5.00;5.00;;;;;27.23;65.64;100574.09;5005746;28;44935;-83
2023/08/19 05:34:02;;;;;;;;;5.67;5.67;;;;;27.20;65.37;100577.91;5004312;28;45387;-83
2023/08/19 05:36:28;;;;;;;;;5.33;5.33;;;;;27.21;65.17;100584.22;5001900;28;47075;-83
2023/08/19 05:38:54;;;;;;;;;8.33;8.00;;;;;27.25;64.82;100585.88;5002869;28;44664;-83
2023/08/19 05:41:19;;;;;;;;;4.33;4.33;;;;;27.24;65.07;100587.72;5001415;28;44797;-83
2023/08/19 05:43:45;;;;;;;;;6.00;6.00;;;;;27.19;65.30;100587.06;5002763;28;44865;-84
2023/08/19 05:46:10;;;;;;;;;9.00;7.67;;;;;27.23;65.05;100585.03;5000522;28;47626;-84
2023/08/19 05:48:36;;;;;;;;;4.67;4.67;;;;;27.26;64.74;100583.03;5003266;28;44833;-84
2023/08/19 05:51:04;;;;;;;;;6.00;6.00;;;;;27.27;65.13;100551.19;4985723;28;44807;-82
2023/08/19 05:53:30;;;;;;;;;5.00;5.00;;;;;27.39;65.23;100591.41;5001696;28;45377;-83
2023/08/19 05:55:55;;;;;;;;;7.00;6.33;;;;;27.43;64.81;100586.63;5001533;28;47222;-82
2023/08/19 05:58:20;;;;;;;;;7.67;6.33;;;;;27.45;64.77;100577.41;4985877;28;45310;-82
2023/08/19 06:00:46;;;;;;;;;6.00;6.00;;;;;27.60;64.36;100599.31;5003680;28;44792;-83
2023/08/19 06:03:15;;;;;;;;;5.33;5.33;;;;;27.61;64.02;100596.50;4987559;28;44911;-83
2023/08/19 06:05:41;;;;;;;;;7.33;7.33;;;;;27.70;64.36;100601.41;4986719;28;47152;-82
2023/08/19 06:08:06;;;;;;;;;6.50;5.25;;;;;27.79;63.92;100596.34;5003828;28;45203;-83
2023/08/19 06:10:32;;;;;;;;;6.75;5.00;;;;;27.88;64.27;100598.56;4988039;28;44823;-82
2023/08/19 06:12:58;;;;;;;;;6.25;5.75;;;;;27.98;63.70;100605.22;5004640;28;45341;-83
2023/08/19 06:15:23;;;;;;;;;5.50;5.50;;;;;28.05;63.98;100625.75;5004394;28;46609;-82
2023/08/19 06:17:49;;;;;;;;;7.00;7.00;;;;;28.10;63.83;100629.09;5003057;28;44921;-82
2023/08/19 06:20:15;;;;;;;;;6.75;6.75;;;;;28.22;63.74;100638.41;5003898;28;45409;-83
2023/08/19 06:22:43;;;;;;;;;8.33;7.33;;;;;28.20;63.27;100648.56;5003295;28;44917;-82
2023/08/19 06:25:09;;;;;;;;;8.00;8.00;;;;;28.26;63.22;100655.50;5002479;28;45555;-83
2023/08/19 06:27:35;;;;;;;;;7.00;7.00;;;;;28.25;62.98;100659.19;5002174;28;44809;-82
2023/08/19 06:30:00;;;;;;;;;7.33;7.33;;;;;28.24;63.05;100665.66;5002041;28;45523;-82
2023/08/19 06:32:26;;;;;;;;;7.00;7.00;;;;;28.29;63.17;100666.25;5002748;28;44938;-82
2023/08/19 06:34:55;;;;;;;;;9.33;8.00;;;;;28.31;62.51;100676.09;5002142;28;46604;-84
2023/08/19 06:37:41;;;;;;;;;5.67;5.67;;;;;28.34;62.31;100666.84;5000443;28;44951;-83
2023/08/19 06:40:16;;;;;;;;;9.00;8.67;;;;;28.27;63.08;100662.72;4983615;28;44785;-83
2023/08/19 06:42:42;;;;;;;;;9.00;8.00;;;;;28.10;62.38;100677.44;5002395;28;45357;-83
2023/08/19 06:45:08;;;;;;;;;7.00;7.00;;;;;28.02;62.73;100707.09;5001654;28;45453;-82
2023/08/19 06:47:37;;;;;;;;;7.33;7.33;;;;;28.04;62.46;100686.88;4984755;28;45363;-82
2023/08/19 06:50:03;;;;;;;;;6.33;6.33;;;;;27.90;62.49;100675.88;5003124;28;44838;-82
2023/08/19 06:52:29;;;;;;;;;7.33;6.33;;;;;27.87;62.27;100678.78;5003754;28;44861;-84
2023/08/19 06:54:55;;;;;;;;;5.33;4.33;;;;;27.92;62.58;100695.81;5004732;28;45389;-82
2023/08/19 06:57:29;;;;;;;;;8.33;6.33;;;;;27.99;62.83;100701.78;5003334;28;44804;-82
2023/08/19 07:00:08;;;;;;;;;8.67;7.00;;;;;27.92;62.43;100710.34;5000739;28;44837;-83
2023/08/19 07:02:36;;;;;;;;;8.33;8.33;;;;;27.91;62.89;100715.91;5000975;28;45033;-81
2023/08/19 07:05:05;;;;;;;;;8.00;8.00;;;;;27.88;62.90;100710.63;4984296;28;46734;-83
2023/08/19 07:07:33;;;;;;;;;7.67;7.67;;;;;27.99;62.47;100705.38;4985921;28;44851;-83
2023/08/19 07:09:59;;;;;;;;;8.00;6.67;;;;;27.97;63.01;100720.13;5004974;28;45173;-83
2023/08/19 07:12:24;;;;;;;;;6.67;6.67;;;;;28.05;62.66;100706.88;4986448;28;44856;-83
2023/08/19 07:14:50;;;;;;;;;6.00;6.00;;;;;28.12;62.53;100706.44;5002604;28;44990;-82
2023/08/19 07:17:26;;;;;;;;;6.67;6.67;;;;;28.29;63.16;100697.19;5001197;28;45507;-82
2023/08/19 07:19:54;;;;;;;;;9.00;8.33;;;;;28.35;63.29;100698.69;5001605;28;44898;-83
2023/08/19 07:22:21;;;;;;;;;10.00;7.67;;;;;28.40;62.99;100710.25;4986356;28;45467;-83
2023/08/19 07:24:48;;;;;;;;;6.00;5.00;;;;;28.45;62.54;100705.34;5002188;28;45074;-83
2023/08/19 07:27:14;;;;;;;;;5.33;5.33;;;;;28.47;61.66;100708.88;5001361;28;45367;-84
2023/08/19 07:29:41;;;;;;;;;5.33;5.33;;;;;28.57;61.57;100719.31;4986397;28;45415;-82
2023/08/19 07:38:50;;;;;;;;;4.00;4.00;;;;;28.59;60.93;100741.97;5001748;28;45176;-84
2023/08/19 07:41:18;;;;;;;;;6.00;6.00;;;;;28.63;60.40;100754.50;4986074;28;44792;-82
2023/08/19 07:43:43;;;;;;;;;7.00;5.33;;;;;28.49;60.34;100750.69;4985425;28;44869;-83
2023/08/19 07:46:09;;;;;;;;;5.00;4.67;;;;;28.44;60.80;100757.41;5002028;28;45333;-83
2023/08/19 07:48:34;;;;;;;;;4.00;4.00;;;;;28.31;60.94;100741.75;5000172;28;44983;-83
2023/08/19 07:51:03;;;;;;;;;5.33;5.33;;;;;28.26;60.70;100762.16;5002329;28;45264;-83
2023/08/19 07:53:28;;;;;;;;;6.00;4.75;;;;;28.12;60.49;100783.00;5002048;28;44843;-82
2023/08/19 07:55:54;;;;;;;;;5.00;3.33;;;;;28.06;60.95;100788.81;5003629;28;47274;-83
2023/08/19 07:58:19;;;;;;;;;6.33;6.33;;;;;28.01;61.37;100793.66;5006332;28;45332;-83
2023/08/19 08:00:51;;;;;;;;;4.67;4.67;;;;;27.95;61.62;100796.75;4989359;28;44876;-82
2023/08/19 08:03:17;;;;;;;;;4.00;4.00;;;;;27.81;61.21;100770.19;5006096;28;44846;-82
2023/08/19 08:05:42;;;;;;;;;6.00;5.33;;;;;27.86;61.42;100789.94;5006761;28;45304;-83
2023/08/19 08:08:08;;;;;;;;;5.75;5.00;;;;;27.84;62.09;100796.47;5003469;28;44849;-82
2023/08/19 08:10:35;;;;;;;;;3.75;3.75;;;;;27.93;61.93;100816.00;5005360;28;44823;-84
2023/08/19 08:13:09;;;;;;;;;4.00;4.00;;;;;27.85;61.47;100829.16;5004737;28;44932;-83
2023/08/19 08:15:37;;;;;;;;;4.50;4.50;;;;;27.80;61.72;100852.28;5006076;28;45072;-82
2023/08/19 08:18:03;;;;;;;;;5.00;5.00;;;;;27.72;61.86;100852.72;4987234;28;44957;-83
2023/08/19 08:20:29;;;;;;;;;4.00;4.00;;;;;27.66;62.54;100873.06;4985932;28;45418;-83
2023/08/19 08:22:54;;;;;;;;;6.00;5.25;;;;;27.64;62.45;100905.03;5001246;28;44841;-84
2023/08/19 08:25:19;;;;;;;;;3.25;2.00;;;;;27.60;62.71;100908.91;5001605;28;47234;-83
2023/08/19 08:27:45;;;;;;;;;5.75;4.75;;;;;27.60;62.68;100897.97;5001240;28;44925;-83
2023/08/19 08:30:14;;;;;;;;;5.00;5.00;;;;;27.57;62.32;100879.03;5003509;28;45466;-84
2023/08/19 08:32:40;;;;;;;;;2.75;2.75;;;;;27.64;63.03;100861.31;5001735;28;44771;-84
2023/08/19 08:35:06;;;;;;;;;5.00;4.00;;;;;27.62;63.17;100860.53;5002225;28;45170;-83
2023/08/19 08:37:34;;;;;;;;;3.75;3.75;;;;;27.72;62.43;100850.84;5002731;28;44688;-83
2023/08/19 08:39:59;;;;;;;;;4.50;4.50;;;;;27.73;62.76;100849.91;5002115;28;45412;-83
2023/08/19 08:42:26;;;;;;;;;4.00;4.00;;;;;27.76;61.96;100858.88;5002380;28;44837;-83
2023/08/19 08:44:59;;;;;;;;;6.75;5.00;;;;;27.93;62.16;100864.31;5001560;28;47397;-82
2023/08/19 08:47:26;;;;;;;;;4.00;3.50;;;;;27.91;62.76;100880.81;5002653;28;45321;-82
2023/08/19 08:49:53;;;;;;;;;3.25;3.25;;;;;27.90;61.95;100884.50;5004190;28;45357;-82
2023/08/19 08:52:20;;;;;;;;;3.50;3.25;;;;;27.93;62.14;100898.00;5004475;28;44890;-84
2023/08/19 08:54:54;;;;;;;;;6.50;5.50;;;;;27.99;62.55;100899.50;5003258;28;47355;-83
2023/08/19 08:57:21;;;;;;;;;5.00;4.00;;;;;27.91;61.95;100885.38;5003262;28;44761;-83
2023/08/19 08:59:49;;;;;;;;;4.00;4.00;;;;;27.97;62.62;100854.97;5003506;28;44869;-82
2023/08/19 09:05:40;;;;;;;;;4.00;4.00;;;;;27.71;62.39;100876.44;5008021;28;45340;-82
2023/08/19 09:08:12;;;;;;;;;5.25;5.25;;;;;27.59;63.58;100893.50;5005743;28;45026;-83
2023/08/19 09:10:38;;;;;;;;;5.50;4.00;;;;;27.47;63.92;100869.56;5007690;28;44727;-83
2023/08/19 09:13:04;;;;;;;;;5.00;4.25;;;;;27.47;65.22;100910.53;4989414;28;44882;-83
2023/08/19 09:15:31;;;;;;;;;6.00;4.00;;;;;27.38;65.15;100905.56;5007245;28;46076;-82
2023/08/19 09:18:00;;;;;;;;;6.00;5.75;;;;;27.45;65.61;100934.31;4989411;28;44822;-83
2023/08/19 09:20:27;;;;;;;;;5.50;4.25;;;;;27.27;66.16;100928.00;5006162;28;45267;-83
2023/08/19 09:23:11;;;;;;;;;4.25;4.25;;;;;27.31;66.99;100905.91;4990666;28;45414;-82
2023/08/19 09:25:39;;;;;;;;;4.25;4.25;;;;;27.14;68.23;100946.81;5006750;28;46889;-82
2023/08/19 09:28:06;;;;;;;;;3.50;3.50;;;;;27.12;67.51;100962.41;5007359;28;45487;-82
2023/08/19 09:30:35;;;;;;;;;5.00;4.50;;;;;27.20;69.00;100976.53;5006189;28;44823;-83
2023/08/19 09:33:01;;;;;;;;;3.75;3.75;;;;;27.10;69.03;100997.09;5005001;28;45444;-83
2023/08/19 09:35:36;;;;;;;;;6.25;6.25;;;;;27.21;69.79;100999.25;5005265;28;45057;-83
2023/08/19 09:38:02;;;;;;;;;4.50;4.50;;;;;27.11;70.69;100977.03;5004674;28;44708;-83
2023/08/19 09:40:27;;;;;;;;;6.25;6.25;;;;;27.03;70.96;100965.63;4985900;28;44908;-83
2023/08/19 09:42:58;;;;;;;;;5.75;5.50;;;;;27.03;71.43;100971.09;4985464;28;44763;-83
2023/08/19 09:45:31;;;;;;;;;4.75;4.75;;;;;26.92;71.56;100977.97;5001658;28;46719;-83
2023/08/19 09:47:56;;;;;;;;;5.00;5.00;;;;;26.88;72.55;100992.69;5001390;28;45487;-83
2023/08/19 09:50:23;;;;;;;;;5.25;5.25;;;;;26.91;72.72;100989.84;5003565;28;44816;-83
2023/08/19 09:52:59;;;;;;;;;7.25;7.25;;;;;26.93;74.36;100996.09;5003680;28;44822;-82
2023/08/19 09:55:27;;;;;;;;;4.25;3.50;;;;;26.89;74.66;100999.94;5006588;28;45149;-83
2023/08/19 09:57:53;;;;;;;;;5.75;4.75;;;;;26.83;74.41;100997.53;5007359;28;44826;-83
2023/08/19 10:00:22;;;;;;;;;6.75;5.75;;;;;26.76;75.05;100993.31;5005702;28;44803;-83
2023/08/19 10:02:47;;;;;;;;;5.50;5.50;;;;;26.71;75.69;100984.50;5006847;28;45290;-84
2023/08/19 10:05:12;;;;;;;;;5.75;5.50;;;;;26.65;77.24;100984.81;5004683;28;45216;-84
2023/08/19 10:07:45;;;;;;;;;5.50;5.50;;;;;26.66;77.19;100979.28;5002020;28;45480;-84
2023/08/19 10:10:13;;;;;;;;;6.25;6.25;;;;;26.59;77.49;100974.19;4984078;28;44817;-83
2023/08/19 10:12:40;;;;;;;;;7.00;7.00;;;;;26.51;79.06;100972.66;5002217;28;45424;-83
2023/08/19 10:15:12;;;;;;;;;6.50;6.50;;;;;26.62;78.51;101001.31;5001072;28;47436;-83
2023/08/19 10:17:43;;;;;;;;;5.75;5.75;;;;;26.68;78.97;100990.09;5002450;28;45389;-83
2023/08/19 10:20:17;;;;;;;;;6.75;6.50;;;;;26.78;79.25;100988.66;5002729;28;44757;-84
2023/08/19 10:22:51;;;;;;;;;8.33;8.00;;;;;26.93;78.40;100985.19;5003037;28;44755;-83
2023/08/19 10:25:19;;;;;;;;;12.00;11.00;;;;;27.05;79.12;100991.88;5000916;28;47097;-82
2023/08/19 10:27:44;;;;;;;;;9.50;9.50;;;;;27.13;79.09;101000.56;5001884;28;44822;-83
2023/08/19 10:30:42;;;;;;;;;8.75;6.50;;;;;27.41;78.96;101007.38;4999363;28;45094;-85
2023/08/19 10:33:32;;;;;;;;;5.33;5.33;;;;;27.57;78.42;100999.25;5002172;28;45401;-83
2023/08/19 10:36:06;;;;;;;;;7.33;7.33;;;;;27.81;77.93;100998.88;5000642;28;47400;-84
2023/08/19 10:38:47;;;;;;;;;5.67;5.67;;;;;28.02;77.81;101003.22;5001826;28;45750;-83
2023/08/19 10:41:40;;;;;;;;;6.00;6.00;;;;;28.31;74.88;101009.81;4984305;28;45294;-83
2023/08/19 10:44:11;;;;;;;;;7.00;7.00;;;;;28.41;75.22;101001.97;4984354;28;45546;-83
2023/08/19 10:46:46;;;;;;;;;6.50;6.50;;;;;28.55;74.01;101005.81;4989730;28;47575;-83
2023/08/19 10:49:14;;;;;;;;;4.33;4.33;;;;;28.50;73.54;100998.75;4985528;28;44836;-83
2023/08/19 10:52:05;;;;;;;;;5.00;5.00;;;;;28.61;72.35;101000.00;4984866;28;44772;-85
2023/08/19 10:54:41;;;;;;;;;5.00;5.00;;;;;28.68;71.94;100996.81;4985524;28;44872;-84
2023/08/19 10:57:25;;;;;;;;;4.67;4.00;;;;;28.81;69.91;101001.59;5003360;28;45385;-83
2023/08/19 11:00:00;;;;;;;;;4.25;4.25;;;;;28.94;69.73;100986.19;5001265;28;45366;-83
2023/08/19 11:02:28;;;;;;;;;4.50;4.00;;;;;28.98;69.93;100989.63;5001115;28;44822;-82
2023/08/19 11:04:54;;;;;;;;;5.00;5.00;;;;;29.06;68.12;101001.88;5001789;28;44762;-82
2023/08/19 11:07:21;;;;;;;;;4.25;4.25;;;;;29.11;68.58;101009.88;4998609;28;47454;-82
2023/08/19 11:09:51;;;;;;;;;4.00;4.00;;;;;29.19;67.79;101006.66;5000134;28;44865;-83
2023/08/19 11:12:20;;;;;;;;;4.00;4.00;;;;;29.48;66.90;101002.19;4984396;28;45754;-84
2023/08/19 11:14:47;;;;;;;;;4.00;4.00;;;;;29.64;66.66;101010.34;4998370;28;44851;-86
2023/08/19 11:17:13;;;;;;;;;4.75;4.75;;;;;29.84;65.72;101014.63;5002573;28;45100;-83
2023/08/19 11:19:38;;;;;;;;;3.25;3.25;;;;;30.03;63.99;101011.59;5002443;28;44845;-83
2023/08/19 11:22:04;;;;;;;;;3.00;3.00;;;;;30.28;63.44;101014.53;5004440;28;45107;-83
2023/08/19 11:24:34;;;;;;;;;3.75;3.75;;;;;30.36;62.43;101013.19;5006077;28;44782;-84
2023/08/19 11:27:02;;;;;;;;;4.75;4.75;;;;;30.38;61.84;101019.44;5004189;28;45299;-83
2023/08/19 11:29:29;;;;;;;;;2.25;2.25;;;;;30.33;60.45;101005.16;5002970;28;44957;-84
2023/08/19 11:31:55;;;;;;;;;3.00;3.00;;;;;30.31;60.91;101005.25;5003944;28;44812;-84
2023/08/19 11:34:21;;;;;;;;;2.50;2.50;;;;;30.30;61.24;100989.78;5003297;28;44746;-84
2023/08/19 11:36:49;;;;;;;;;2.50;2.50;;;;;30.56;60.06;100998.16;5003581;28;45215;-82